Time;durP1;ratioP1;P1;durP2;ratioP2;P2;SDS_P1;SDS_P2;PMS_P1;PMS_P2;Temp;Humidity;BMP_temperature;BMP_pressure;BME280_temperature;BME280_humidity;BME280_pressure;Samples;Min_cycle;Max_cycle;Signal;HPM_P1;HPM_P2
2022/03/21 00:02:21;;;;;;;;;;;11.30;56.80;;;;;;5088431;28;20285;-74
2022/03/21 00:04:47;;;;;;;;;;;11.20;56.80;;;;;;5088554;28;20304;-73
2022/03/21 00:07:13;;;;;;;;;;;11.10;56.90;;;;;;5088511;28;19912;-73
2022/03/21 00:09:38;;;;;;;;;;;11.10;57.10;;;;;;5088469;28;19916;-73
2022/03/21 00:12:04;;;;;;;;;;;11.00;57.10;;;;;;5088621;28;19920;-73
2022/03/21 00:14:30;;;;;;;;;;;11.00;57.20;;;;;;5088591;28;19940;-73
2022/03/21 00:16:55;;;;;;;;;;;10.90;57.30;;;;;;5088571;28;20120;-73
2022/03/21 00:19:21;;;;;;;;;;;10.90;57.30;;;;;;5087226;28;19913;-73
2022/03/21 00:21:46;;;;;;;;;;;10.90;57.30;;;;;;5088470;28;20014;-73
2022/03/21 00:24:12;;;;;;;;;;;11.00;57.20;;;;;;5088480;28;20182;-73
2022/03/21 00:26:37;;;;;;;;;;;11.10;57.10;;;;;;5088471;28;20143;-73
2022/03/21 00:29:03;;;;;;;;;;;11.30;57.00;;;;;;5088340;28;19968;-73
2022/03/21 00:31:29;;;;;;;;;;;11.30;56.80;;;;;;5088387;28;19919;-73
2022/03/21 00:33:54;;;;;;;;;;;11.40;56.90;;;;;;5088293;28;20423;-73
2022/03/21 00:36:20;;;;;;;;;;;11.40;56.90;;;;;;5088359;28;19912;-73
2022/03/21 00:38:45;;;;;;;;;;;11.30;56.90;;;;;;5088055;28;19924;-73
2022/03/21 00:41:11;;;;;;;;;;;11.30;57.10;;;;;;5088236;28;20007;-73
2022/03/21 00:43:37;;;;;;;;;;;11.30;57.10;;;;;;5088207;28;19912;-73
2022/03/21 00:46:02;;;;;;;;;;;11.30;57.10;;;;;;5088137;28;19942;-73
2022/03/21 00:48:29;;;;;;;;;;;11.30;57.10;;;;;;5088158;28;19931;-73
2022/03/21 00:50:55;;;;;;;;;;;11.20;57.70;;;;;;5088057;28;19938;-73
2022/03/21 00:53:21;;;;;;;;;;;11.20;57.30;;;;;;5086790;28;20277;-74
2022/03/21 00:55:48;;;;;;;;;;;11.20;57.30;;;;;;5087938;28;20000;-73
2022/03/21 00:58:14;;;;;;;;;;;11.20;57.30;;;;;;5087799;28;20309;-73
2022/03/21 01:00:39;;;;;;;;;;;11.30;57.30;;;;;;5087972;28;20280;-73
2022/03/21 01:03:05;;;;;;;;;;;11.30;57.30;;;;;;5087950;28;20002;-73
2022/03/21 01:05:31;;;;;;;;;;;11.30;57.20;;;;;;5087951;28;20020;-73
2022/03/21 01:07:57;;;;;;;;;;;11.30;57.20;;;;;;5087952;28;20003;-72
2022/03/21 01:10:24;;;;;;;;;;;11.30;57.20;;;;;;5089154;28;19912;-73
2022/03/21 01:12:50;;;;;;;;;;;11.30;57.20;;;;;;5092052;28;19912;-73
2022/03/21 01:15:16;;;;;;;;;;;11.30;57.20;;;;;;5092065;28;19912;-73
2022/03/21 01:17:42;;;;;;;;;;;11.30;57.30;;;;;;5091989;28;19912;-73
2022/03/21 01:20:09;;;;;;;;;;;11.30;57.30;;;;;;5090776;28;19913;-73
2022/03/21 01:22:35;;;;;;;;;;;11.20;57.40;;;;;;5091759;28;19908;-73
2022/03/21 01:25:00;;;;;;;;;;;11.20;57.50;;;;;;5091927;28;19912;-73
2022/03/21 01:27:26;;;;;;;;;;;11.20;57.50;;;;;;5091910;28;19957;-73
2022/03/21 01:29:52;;;;;;;;;;;11.30;57.50;;;;;;5091791;28;20255;-73
2022/03/21 01:32:18;;;;;;;;;;;11.30;57.40;;;;;;5091705;28;19912;-73
2022/03/21 01:34:43;;;;;;;;;;;11.30;57.40;;;;;;5091667;28;19912;-73
2022/03/21 01:37:09;;;;;;;;;;;11.20;57.50;;;;;;5091511;28;19921;-73
2022/03/21 01:39:35;;;;;;;;;;;11.20;57.50;;;;;;5091617;28;19920;-73
2022/03/21 01:42:00;;;;;;;;;;;11.20;57.60;;;;;;5091567;28;20341;-73
2022/03/21 01:44:26;;;;;;;;;;;11.20;57.60;;;;;;5091552;28;19915;-73
2022/03/21 01:46:52;;;;;;;;;;;11.30;57.50;;;;;;5091620;28;19912;-73
2022/03/21 01:49:17;;;;;;;;;;;11.30;57.40;;;;;;5091542;28;19929;-73
2022/03/21 01:51:43;;;;;;;;;;;11.30;57.30;;;;;;5091363;28;20279;-73
2022/03/21 01:56:54;;;;;;;;;;;11.30;57.30;;;;;;5091711;28;19957;-73
2022/03/21 01:59:20;;;;;;;;;;;11.20;57.20;;;;;;5091121;28;19920;-72
2022/03/21 02:01:47;;;;;;;;;;;11.20;57.30;;;;;;5091223;28;19977;-72
2022/03/21 02:04:13;;;;;;;;;;;11.20;57.30;;;;;;5091351;28;19916;-73
2022/03/21 02:06:41;;;;;;;;;;;11.20;57.20;;;;;;5091181;28;19970;-73
2022/03/21 02:09:09;;;;;;;;;;;11.20;57.20;;;;;;5091043;28;19999;-73
2022/03/21 02:11:35;;;;;;;;;;;11.20;57.20;;;;;;5091152;28;19955;-73
2022/03/21 02:14:03;;;;;;;;;;;11.20;57.10;;;;;;5091118;28;19919;-73
2022/03/21 02:16:30;;;;;;;;;;;11.20;57.10;;;;;;5089624;28;19912;-73
2022/03/21 02:18:57;;;;;;;;;;;11.20;57.10;;;;;;5090830;28;20010;-73
2022/03/21 02:21:26;;;;;;;;;;;11.20;57.10;;;;;;5089850;28;20019;-73
2022/03/21 02:23:55;;;;;;;;;;;11.20;57.30;;;;;;5090410;28;19912;-73
2022/03/21 02:26:21;;;;;;;;;;;11.10;57.30;;;;;;5090748;28;19914;-73
2022/03/21 02:28:48;;;;;;;;;;;11.10;57.30;;;;;;5090745;28;19916;-73
2022/03/21 02:31:14;;;;;;;;;;;11.10;57.40;;;;;;5090647;28;19908;-73
2022/03/21 02:33:40;;;;;;;;;;;11.10;57.40;;;;;;5090685;28;19915;-73
2022/03/21 02:36:06;;;;;;;;;;;11.10;57.50;;;;;;5090499;28;20298;-73
2022/03/21 02:38:32;;;;;;;;;;;11.00;57.60;;;;;;5090350;28;19920;-73
2022/03/21 02:40:58;;;;;;;;;;;10.90;57.70;;;;;;5090567;28;19912;-73
2022/03/21 02:43:23;;;;;;;;;;;10.90;57.80;;;;;;5089072;28;19913;-73
2022/03/21 02:45:49;;;;;;;;;;;10.90;57.80;;;;;;5090748;28;19908;-74
2022/03/21 02:48:15;;;;;;;;;;;10.90;57.90;;;;;;5090222;28;20046;-73
2022/03/21 02:50:56;;;;;;;;;;;10.80;57.90;;;;;;5090397;28;19919;-73
2022/03/21 02:53:22;;;;;;;;;;;10.80;58.00;;;;;;5090297;28;19908;-73
2022/03/21 02:55:52;;;;;;;;;;;10.70;58.10;;;;;;5090213;28;19912;-73
2022/03/21 02:58:18;;;;;;;;;;;10.60;58.20;;;;;;5090133;28;19915;-73
2022/03/21 03:00:43;;;;;;;;;;;10.60;58.20;;;;;;5090013;28;19912;-73
2022/03/21 03:03:09;;;;;;;;;;;10.70;58.10;;;;;;5090101;28;19919;-73
2022/03/21 03:05:35;;;;;;;;;;;10.70;58.10;;;;;;5090079;28;20371;-73
2022/03/21 03:08:02;;;;;;;;;;;10.60;58.10;;;;;;5089965;28;19916;-73
2022/03/21 03:10:27;;;;;;;;;;;10.60;58.20;;;;;;5090130;28;19917;-73
2022/03/21 03:12:53;;;;;;;;;;;10.60;58.20;;;;;;5089849;28;19957;-73
2022/03/21 03:15:19;;;;;;;;;;;10.70;58.10;;;;;;5090147;28;19966;-73
2022/03/21 03:17:44;;;;;;;;;;;10.70;58.00;;;;;;5089706;28;19947;-73
2022/03/21 03:20:10;;;;;;;;;;;10.70;57.90;;;;;;5089700;28;19920;-73
2022/03/21 03:22:36;;;;;;;;;;;10.70;58.00;;;;;;5089617;28;20370;-73
2022/03/21 03:25:03;;;;;;;;;;;10.70;58.00;;;;;;5089600;28;20002;-73
2022/03/21 03:27:28;;;;;;;;;;;10.70;58.10;;;;;;5089558;28;19912;-72
2022/03/21 03:29:55;;;;;;;;;;;10.60;58.20;;;;;;5089578;28;19995;-73
2022/03/21 03:32:21;;;;;;;;;;;10.70;58.20;;;;;;5088005;28;19919;-73
2022/03/21 03:34:46;;;;;;;;;;;10.70;58.10;;;;;;5089078;28;19971;-73
2022/03/21 03:37:13;;;;;;;;;;;10.60;58.00;;;;;;5089287;28;19913;-73
2022/03/21 03:39:38;;;;;;;;;;;10.60;58.10;;;;;;5089303;28;19920;-73
2022/03/21 03:42:04;;;;;;;;;;;10.60;58.10;;;;;;5089320;28;20381;-73
2022/03/21 03:44:30;;;;;;;;;;;10.60;58.10;;;;;;5089226;28;19908;-73
2022/03/21 03:46:55;;;;;;;;;;;10.60;58.00;;;;;;5089216;28;19922;-73
2022/03/21 03:49:21;;;;;;;;;;;10.70;58.10;;;;;;5089057;28;19919;-73
2022/03/21 03:51:46;;;;;;;;;;;10.70;58.00;;;;;;5089145;28;19919;-73
2022/03/21 03:54:12;;;;;;;;;;;10.70;58.00;;;;;;5087850;28;19951;-73
2022/03/21 03:56:37;;;;;;;;;;;10.70;57.90;;;;;;5089109;28;19919;-72
2022/03/21 03:59:03;;;;;;;;;;;10.70;57.90;;;;;;5088947;28;19916;-73
2022/03/21 04:01:29;;;;;;;;;;;10.70;57.90;;;;;;5088825;28;19919;-73
2022/03/21 04:03:54;;;;;;;;;;;10.60;57.80;;;;;;5089267;28;19912;-73
2022/03/21 04:06:21;;;;;;;;;;;10.60;57.90;;;;;;5087678;28;19920;-73
2022/03/21 04:08:47;;;;;;;;;;;10.50;58.00;;;;;;5088865;28;19912;-73
2022/03/21 04:11:14;;;;;;;;;;;10.50;58.00;;;;;;5088832;28;19912;-73
2022/03/21 04:13:40;;;;;;;;;;;10.60;58.00;;;;;;5088746;28;19912;-73
2022/03/21 04:16:06;;;;;;;;;;;10.50;57.90;;;;;;5088694;28;19933;-73
2022/03/21 04:18:31;;;;;;;;;;;10.40;58.00;;;;;;5088468;28;20005;-73
2022/03/21 04:20:57;;;;;;;;;;;10.40;58.10;;;;;;5088542;28;19982;-72
2022/03/21 04:23:23;;;;;;;;;;;10.30;58.10;;;;;;5088598;28;19918;-73
2022/03/21 04:25:48;;;;;;;;;;;10.30;58.20;;;;;;5088521;28;19923;-74
2022/03/21 04:28:14;;;;;;;;;;;10.30;58.20;;;;;;5088473;28;19915;-73
2022/03/21 04:30:41;;;;;;;;;;;10.20;58.20;;;;;;5088494;28;20393;-73
2022/03/21 04:33:09;;;;;;;;;;;10.10;58.20;;;;;;5088277;28;20007;-73
2022/03/21 04:35:35;;;;;;;;;;;10.10;58.20;;;;;;5088434;28;19934;-73
2022/03/21 04:38:00;;;;;;;;;;;10.10;58.20;;;;;;5088299;28;19924;-72
2022/03/21 04:40:26;;;;;;;;;;;10.00;58.10;;;;;;5088391;28;19915;-73
2022/03/21 04:42:51;;;;;;;;;;;10.00;58.20;;;;;;5088155;28;20369;-73
2022/03/21 04:45:17;;;;;;;;;;;9.90;58.20;;;;;;5087554;28;19908;-73
2022/03/21 04:47:43;;;;;;;;;;;9.90;58.30;;;;;;5088263;28;19920;-72
2022/03/21 04:50:09;;;;;;;;;;;9.80;58.30;;;;;;5088248;28;20001;-73
2022/03/21 04:52:35;;;;;;;;;;;9.70;58.30;;;;;;5088170;28;20003;-73
2022/03/21 04:55:01;;;;;;;;;;;9.60;58.40;;;;;;5088039;28;20319;-73
2022/03/21 04:57:27;;;;;;;;;;;9.60;58.40;;;;;;5088091;28;19970;-73
2022/03/21 04:59:53;;;;;;;;;;;9.50;58.40;;;;;;5088031;28;19951;-73
2022/03/21 05:02:19;;;;;;;;;;;9.40;58.40;;;;;;5088433;28;19999;-72
2022/03/21 05:04:44;;;;;;;;;;;9.40;58.40;;;;;;5087881;28;20446;-72
2022/03/21 05:07:16;;;;;;;;;;;9.30;58.40;;;;;;5088056;28;19919;-73
2022/03/21 05:09:42;;;;;;;;;;;9.20;58.40;;;;;;5086683;28;19909;-73
2022/03/21 05:12:12;;;;;;;;;;;9.20;58.50;;;;;;5088011;28;20012;-73
2022/03/21 05:14:38;;;;;;;;;;;9.10;58.60;;;;;;5087957;28;19908;-72
2022/03/21 05:17:05;;;;;;;;;;;9.10;58.60;;;;;;5087977;28;20031;-73
2022/03/21 05:19:34;;;;;;;;;;;9.10;58.60;;;;;;5087841;28;19912;-72
2022/03/21 05:22:01;;;;;;;;;;;9.10;58.70;;;;;;5086506;28;19939;-73
2022/03/21 05:32:39;;;;;;;;;;;9.20;58.70;;;;;;5088181;28;20293;-72
2022/03/21 05:37:49;;;;;;;;;;;9.20;58.60;;;;;;5087441;28;20286;-73
2022/03/21 05:40:34;;;;;;;;;;;9.30;58.60;;;;;;5087684;28;19912;-73
2022/03/21 05:43:00;;;;;;;;;;;9.30;58.60;;;;;;5087638;28;20376;-73
2022/03/21 05:45:26;;;;;;;;;;;9.30;58.60;;;;;;5087626;28;20144;-73
2022/03/21 05:50:38;;;;;;;;;;;9.40;58.50;;;;;;5086780;28;20456;-73
2022/03/21 05:53:04;;;;;;;;;;;9.50;58.40;;;;;;5087659;28;19923;-72
2022/03/21 05:55:30;;;;;;;;;;;9.50;58.40;;;;;;5087393;28;19912;-72
2022/03/21 05:57:56;;;;;;;;;;;9.50;58.40;;;;;;5091075;28;19912;-73
2022/03/21 06:00:22;;;;;;;;;;;9.50;58.40;;;;;;5091300;28;19912;-72
2022/03/21 06:02:51;;;;;;;;;;;9.50;58.30;;;;;;5091166;28;19928;-72
2022/03/21 06:05:17;;;;;;;;;;;9.50;58.30;;;;;;5091104;28;19978;-73
2022/03/21 06:07:43;;;;;;;;;;;9.50;58.30;;;;;;5091193;28;20038;-73
2022/03/21 06:10:08;;;;;;;;;;;9.50;58.30;;;;;;5091093;28;20409;-73
2022/03/21 06:12:34;;;;;;;;;;;9.40;58.30;;;;;;5090976;28;20374;-73
2022/03/21 06:14:59;;;;;;;;;;;9.50;58.40;;;;;;5091002;28;19916;-73
2022/03/21 06:17:25;;;;;;;;;;;9.50;58.40;;;;;;5089678;28;19923;-73
2022/03/21 06:19:51;;;;;;;;;;;9.40;58.40;;;;;;5090877;28;19920;-71
2022/03/21 06:22:17;;;;;;;;;;;9.50;58.50;;;;;;5090839;28;20343;-72
2022/03/21 06:24:42;;;;;;;;;;;9.50;58.40;;;;;;5090699;28;19951;-72
2022/03/21 06:27:08;;;;;;;;;;;9.50;58.40;;;;;;5090678;28;19954;-71
2022/03/21 06:29:34;;;;;;;;;;;9.40;58.50;;;;;;5090396;28;20520;-72
2022/03/21 06:32:00;;;;;;;;;;;9.40;58.50;;;;;;5089164;28;20372;-72
2022/03/21 06:34:25;;;;;;;;;;;9.50;58.60;;;;;;5089388;28;19913;-72
2022/03/21 06:36:52;;;;;;;;;;;9.50;58.70;;;;;;5090584;28;19916;-72
2022/03/21 06:39:18;;;;;;;;;;;9.50;58.50;;;;;;5090332;28;19931;-73
2022/03/21 06:41:44;;;;;;;;;;;9.50;58.50;;;;;;5088992;28;19908;-72
2022/03/21 06:44:10;;;;;;;;;;;9.50;58.60;;;;;;5089125;28;20240;-72
2022/03/21 06:46:36;;;;;;;;;;;9.50;58.60;;;;;;5090389;28;19919;-72
2022/03/21 06:49:01;;;;;;;;;;;9.50;58.70;;;;;;5090252;28;19912;-73
2022/03/21 06:51:27;;;;;;;;;;;9.50;58.70;;;;;;5090423;28;19916;-73
2022/03/21 06:53:53;;;;;;;;;;;9.50;58.70;;;;;;5090048;28;19916;-72
2022/03/21 06:56:18;;;;;;;;;;;9.60;58.70;;;;;;5089900;28;20130;-72
2022/03/21 06:58:44;;;;;;;;;;;9.60;58.70;;;;;;5089733;28;19912;-73
2022/03/21 07:01:10;;;;;;;;;;;9.70;58.70;;;;;;5089889;28;20015;-72
2022/03/21 07:03:36;;;;;;;;;;;9.70;58.70;;;;;;5090053;28;19920;-72
2022/03/21 07:06:01;;;;;;;;;;;9.80;58.80;;;;;;5089893;28;19912;-72
2022/03/21 07:08:27;;;;;;;;;;;9.80;58.80;;;;;;5088920;28;19957;-71
2022/03/21 07:10:53;;;;;;;;;;;9.80;58.80;;;;;;5089759;28;19912;-72
2022/03/21 07:13:18;;;;;;;;;;;9.90;58.80;;;;;;5089707;28;19977;-72
2022/03/21 07:15:44;;;;;;;;;;;10.00;58.90;;;;;;5089761;28;19919;-71
2022/03/21 07:18:10;;;;;;;;;;;10.00;58.80;;;;;;5089646;28;19935;-71
2022/03/21 07:20:37;;;;;;;;;;;10.10;58.80;;;;;;5089649;28;19946;-71
2022/03/21 07:23:02;;;;;;;;;;;10.20;58.80;;;;;;5089564;28;19908;-72
2022/03/21 07:25:28;;;;;;;;;;;10.20;58.80;;;;;;5089302;28;19912;-72
2022/03/21 07:27:54;;;;;;;;;;;10.30;58.80;;;;;;5089217;28;19908;-72
2022/03/21 07:30:19;;;;;;;;;;;10.40;58.70;;;;;;5089294;28;19924;-72
2022/03/21 07:32:45;;;;;;;;;;;10.50;58.70;;;;;;5089304;28;19995;-71
2022/03/21 07:35:12;;;;;;;;;;;10.60;58.80;;;;;;5089282;28;19916;-72
2022/03/21 07:37:38;;;;;;;;;;;10.60;58.80;;;;;;5088822;28;19916;-72
2022/03/21 07:40:04;;;;;;;;;;;10.70;58.90;;;;;;5089058;28;19916;-72
2022/03/21 07:42:33;;;;;;;;;;;10.70;59.00;;;;;;5088998;28;19914;-71
2022/03/21 07:47:42;;;;;;;;;;;10.70;59.30;;;;;;5089094;28;19954;-72
2022/03/21 07:50:08;;;;;;;;;;;10.80;59.40;;;;;;5088585;28;19912;-72
2022/03/21 07:52:34;;;;;;;;;;;10.90;59.50;;;;;;5087025;28;19915;-73
2022/03/21 07:54:59;;;;;;;;;;;11.10;59.40;;;;;;5088524;28;19916;-72
2022/03/21 07:57:26;;;;;;;;;;;11.20;59.10;;;;;;5087020;28;19912;-71
2022/03/21 07:59:53;;;;;;;;;;;11.10;59.00;;;;;;5088652;28;19920;-72
2022/03/21 08:02:19;;;;;;;;;;;11.10;59.00;;;;;;5088535;28;20052;-72
2022/03/21 08:04:46;;;;;;;;;;;11.10;59.00;;;;;;5088610;28;20270;-72
2022/03/21 08:07:12;;;;;;;;;;;11.10;59.00;;;;;;5088331;28;19948;-73
2022/03/21 08:09:38;;;;;;;;;;;11.20;59.00;;;;;;5088198;28;20007;-72
2022/03/21 08:12:04;;;;;;;;;;;11.10;59.10;;;;;;5087951;28;20341;-73
2022/03/21 08:14:29;;;;;;;;;;;11.10;59.10;;;;;;5088046;28;19912;-73
2022/03/21 08:16:55;;;;;;;;;;;11.20;59.30;;;;;;5088454;28;19923;-72
2022/03/21 08:19:24;;;;;;;;;;;11.30;59.30;;;;;;5088194;28;20085;-68
2022/03/21 08:21:51;;;;;;;;;;;11.30;59.40;;;;;;5088013;28;19912;-72
2022/03/21 08:24:16;;;;;;;;;;;11.40;59.50;;;;;;5087879;28;19908;-71
2022/03/21 08:26:43;;;;;;;;;;;11.50;59.70;;;;;;5087819;28;19964;-72
2022/03/21 08:29:08;;;;;;;;;;;11.60;59.70;;;;;;5087988;28;19908;-72
2022/03/21 08:31:34;;;;;;;;;;;11.60;59.70;;;;;;5087833;28;20007;-72
2022/03/21 08:34:00;;;;;;;;;;;11.70;59.70;;;;;;5086450;28;19917;-73
2022/03/21 08:36:27;;;;;;;;;;;11.80;59.60;;;;;;5088022;28;19916;-72
2022/03/21 08:38:53;;;;;;;;;;;12.00;59.70;;;;;;5087737;28;19924;-73
2022/03/21 08:41:21;;;;;;;;;;;12.10;59.70;;;;;;5087819;28;19935;-72
2022/03/21 08:43:47;;;;;;;;;;;12.30;59.70;;;;;;5087886;28;19912;-71
2022/03/21 08:46:12;;;;;;;;;;;12.50;59.60;;;;;;5087781;28;19908;-72
2022/03/21 08:51:23;;;;;;;;;;;12.70;59.60;;;;;;5087956;28;20416;-72
2022/03/21 08:53:48;;;;;;;;;;;12.80;59.60;;;;;;5087390;28;19955;-72
2022/03/21 08:56:14;;;;;;;;;;;13.00;59.80;;;;;;5087403;28;19939;-72
2022/03/21 08:58:39;;;;;;;;;;;13.40;60.30;;;;;;5087006;28;19916;-73
2022/03/21 09:01:05;;;;;;;;;;;13.80;60.10;;;;;;5087284;28;19912;-73
2022/03/21 09:03:30;;;;;;;;;;;14.20;60.30;;;;;;5087407;28;19915;-73
2022/03/21 09:05:56;;;;;;;;;;;14.50;60.10;;;;;;5087685;28;19915;-72
2022/03/21 09:08:22;;;;;;;;;;;14.70;59.80;;;;;;5087523;28;20283;-72
2022/03/21 09:10:48;;;;;;;;;;;14.70;59.80;;;;;;5087656;28;19958;-73
2022/03/21 09:13:14;;;;;;;;;;;14.80;59.80;;;;;;5087971;28;20334;-73
2022/03/21 09:15:41;;;;;;;;;;;14.90;59.90;;;;;;5087305;28;19952;-72
2022/03/21 09:18:06;;;;;;;;;;;14.90;59.70;;;;;;5085846;28;19916;-72
2022/03/21 09:20:32;;;;;;;;;;;15.00;59.60;;;;;;5087179;28;19920;-73
2022/03/21 09:22:57;;;;;;;;;;;15.10;59.50;;;;;;5087360;28;19924;-73
2022/03/21 09:25:23;;;;;;;;;;;15.00;59.50;;;;;;5087226;28;20286;-73
2022/03/21 09:27:48;;;;;;;;;;;15.00;59.70;;;;;;5085835;28;19958;-73
2022/03/21 09:30:14;;;;;;;;;;;15.00;59.70;;;;;;5087241;28;19915;-72
2022/03/21 09:32:40;;;;;;;;;;;15.00;60.20;;;;;;5090462;28;19908;-73
2022/03/21 09:35:06;;;;;;;;;;;14.90;59.80;;;;;;5089599;28;19916;-73
2022/03/21 09:37:32;;;;;;;;;;;14.90;60.00;;;;;;5090844;28;19924;-72
2022/03/21 09:39:58;;;;;;;;;;;14.90;60.10;;;;;;5091229;28;19916;-73
2022/03/21 09:42:24;;;;;;;;;;;14.90;60.10;;;;;;5091405;28;19920;-73
2022/03/21 09:44:52;;;;;;;;;;;14.80;60.20;;;;;;5090992;28;19908;-73
2022/03/21 09:50:07;;;;;;;;;;;14.80;60.10;;;;;;5090912;28;19989;-73
2022/03/21 09:52:33;;;;;;;;;;;14.70;60.20;;;;;;5090699;28;19915;-73
2022/03/21 09:54:58;;;;;;;;;;;14.60;60.30;;;;;;5086130;28;19913;-73
2022/03/21 09:57:26;;;;;;;;;;;14.60;60.50;;;;;;5070617;28;19957;-73
2022/03/21 09:59:52;;;;;;;;;;;14.70;60.40;;;;;;5071428;28;19920;-72
2022/03/21 10:02:18;;;;;;;;;;;14.70;60.40;;;;;;5071636;28;20247;-73
2022/03/21 10:04:44;;;;;;;;;;;14.80;60.60;;;;;;5071739;28;20517;-73
2022/03/21 10:07:10;;;;;;;;;;;15.10;60.50;;;;;;5071650;28;19915;-73
2022/03/21 10:09:36;;;;;;;;;;;15.30;60.20;;;;;;5071545;28;19916;-73
2022/03/21 10:12:03;;;;;;;;;;;15.40;60.10;;;;;;5069925;28;20396;-73
2022/03/21 10:14:32;;;;;;;;;;;15.60;60.20;;;;;;5070854;28;19925;-72
2022/03/21 10:16:59;;;;;;;;;;;15.70;60.00;;;;;;5070062;28;19913;-71
2022/03/21 10:19:25;;;;;;;;;;;15.80;59.60;;;;;;5072654;28;19921;-73
2022/03/21 10:22:03;;;;;;;;;;;15.90;59.70;;;;;;5101209;28;19973;-74
2022/03/21 10:24:33;;;;;;;;;;;15.90;59.60;;;;;;5100067;28;19908;-73
2022/03/21 10:26:59;;;;;;;;;;;15.90;59.70;;;;;;5095681;28;19915;-73
2022/03/21 10:29:24;;;;;;;;;;;16.00;59.70;;;;;;5090201;28;20282;-72
2022/03/21 10:31:53;;;;;;;;;;;16.20;59.80;;;;;;5090026;28;19912;-72
2022/03/21 10:34:20;;;;;;;;;;;16.30;59.70;;;;;;5090125;28;20270;-72
2022/03/21 10:37:03;;;;;;;;;;;16.50;59.50;;;;;;5089687;28;19908;-72
2022/03/21 10:39:29;;;;;;;;;;;16.60;59.50;;;;;;5070212;28;19936;-72
2022/03/21 10:42:00;;;;;;;;;;;16.90;59.90;;;;;;5070387;28;20256;-73
2022/03/21 10:44:26;;;;;;;;;;;17.30;60.00;;;;;;5068393;28;19908;-73
2022/03/21 10:46:53;;;;;;;;;;;17.80;59.90;;;;;;5070562;28;19926;-70
2022/03/21 10:49:26;;;;;;;;;;;18.10;59.80;;;;;;5052066;28;19946;-71
2022/03/21 10:51:56;;;;;;;;;;;18.50;60.20;;;;;;5069002;28;19913;-70
2022/03/21 10:54:35;;;;;;;;;;;19.00;60.00;;;;;;5068775;28;19908;-71
2022/03/21 10:57:00;;;;;;;;;;;19.50;60.00;;;;;;5070238;28;20343;-71
2022/03/21 10:59:26;;;;;;;;;;;20.10;60.50;;;;;;5068763;28;19921;-72
2022/03/21 11:02:12;;;;;;;;;;;21.00;61.30;;;;;;5082636;28;19912;-74
2022/03/21 11:04:40;;;;;;;;;;;22.30;61.50;;;;;;5089241;28;19916;-72
2022/03/21 11:07:08;;;;;;;;;;;23.60;61.10;;;;;;5090491;28;19908;-73
2022/03/21 11:09:34;;;;;;;;;;;24.50;60.50;;;;;;5091161;28;20079;-72
2022/03/21 11:12:00;;;;;;;;;;;25.00;60.50;;;;;;5090373;28;19916;-72
2022/03/21 11:14:26;;;;;;;;;;;25.30;60.40;;;;;;5090160;28;20296;-73
2022/03/21 11:16:52;;;;;;;;;;;25.60;60.70;;;;;;5088721;28;19916;-72
2022/03/21 11:19:18;;;;;;;;;;;26.10;60.80;;;;;;5090232;28;19938;-70
2022/03/21 11:21:44;;;;;;;;;;;26.50;60.70;;;;;;5090332;28;20375;-71
2022/03/21 11:24:11;;;;;;;;;;;26.70;60.70;;;;;;5090635;28;20017;-71
2022/03/21 11:26:36;;;;;;;;;;;27.10;59.80;;;;;;5090457;28;19920;-73
2022/03/21 11:29:28;;;;;;;;;;;27.30;58.90;;;;;;5089762;28;19908;-72
2022/03/21 11:32:03;;;;;;;;;;;27.40;58.90;;;;;;5071102;28;19915;-74
2022/03/21 11:34:31;;;;;;;;;;;27.50;57.30;;;;;;5089782;28;19912;-72
2022/03/21 11:36:58;;;;;;;;;;;27.50;57.70;;;;;;5089025;28;19915;-71
2022/03/21 11:39:24;;;;;;;;;;;27.50;56.70;;;;;;5089232;28;20338;-76
2022/03/21 11:41:57;;;;;;;;;;;27.10;56.00;;;;;;5089090;28;19908;-72
2022/03/21 11:44:23;;;;;;;;;;;26.70;57.10;;;;;;5088955;28;19912;-72
2022/03/21 11:46:49;;;;;;;;;;;26.70;56.20;;;;;;5084770;28;20312;-72
2022/03/21 11:49:17;;;;;;;;;;;26.40;56.30;;;;;;5088948;28;19912;-73
2022/03/21 11:51:43;;;;;;;;;;;26.10;55.00;;;;;;5088387;28;19914;-71
2022/03/21 11:54:27;;;;;;;;;;;25.90;54.90;;;;;;5088449;28;19919;-70
2022/03/21 11:56:54;;;;;;;;;;;25.80;54.60;;;;;;5084361;28;19938;-72
2022/03/21 11:59:34;;;;;;;;;;;25.70;54.70;;;;;;5087898;28;19998;-73
2022/03/21 12:02:00;;;;;;;;;;;25.60;55.00;;;;;;5086564;28;19999;-73
2022/03/21 12:04:29;;;;;;;;;;;25.50;54.80;;;;;;5088815;28;20407;-73
2022/03/21 12:06:58;;;;;;;;;;;25.30;54.40;;;;;;5087333;28;19946;-74
2022/03/21 12:09:37;;;;;;;;;;;25.30;54.80;;;;;;5088214;28;19934;-73
2022/03/21 12:12:03;;;;;;;;;;;25.10;54.60;;;;;;5088270;28;20440;-73
2022/03/21 12:14:37;;;;;;;;;;;25.10;55.00;;;;;;5088183;28;20270;-74
2022/03/21 12:17:05;;;;;;;;;;;25.10;55.10;;;;;;5088437;28;19966;-74
2022/03/21 12:19:58;;;;;;;;;;;25.00;55.00;;;;;;5086194;28;20386;-76
2022/03/21 12:22:30;;;;;;;;;;;24.80;55.00;;;;;;5087971;28;19908;-75
2022/03/21 12:24:56;;;;;;;;;;;24.50;55.10;;;;;;5088650;28;19977;-76
2022/03/21 12:27:35;;;;;;;;;;;24.50;55.10;;;;;;5088076;28;19962;-73
2022/03/21 12:30:19;;;;;;;;;;;24.60;54.80;;;;;;5085557;28;19908;-74
2022/03/21 12:32:52;;;;;;;;;;;24.70;54.30;;;;;;5085958;28;19916;-74
2022/03/21 12:35:43;;;;;;;;;;;24.70;54.20;;;;;;5087582;28;19968;-75
2022/03/21 12:38:14;;;;;;;;;;;24.70;54.70;;;;;;5086006;28;20027;-75
2022/03/21 12:41:22;;;;;;;;;;;24.60;54.50;;;;;;5087476;28;19946;-72
2022/03/21 12:43:45;;;;;;;;;;;24.60;54.90;;;;;;5087862;28;20278;-72
2022/03/21 12:46:14;;;;;;;;;;;24.80;54.80;;;;;;5085537;28;19908;-75
2022/03/21 12:48:41;;;;;;;;;;;24.90;54.70;;;;;;5087130;28;19950;-74
2022/03/21 12:51:08;;;;;;;;;;;24.80;54.50;;;;;;5087128;28;19912;-74
2022/03/21 12:53:36;;;;;;;;;;;24.70;54.80;;;;;;5087361;28;20007;-75
2022/03/21 12:56:03;;;;;;;;;;;24.70;55.20;;;;;;5086996;28;20282;-74
2022/03/21 12:58:29;;;;;;;;;;;24.80;55.30;;;;;;5084325;28;19912;-74
2022/03/21 13:00:56;;;;;;;;;;;24.80;55.10;;;;;;5086969;28;19913;-72
2022/03/21 13:03:23;;;;;;;;;;;24.80;54.70;;;;;;5087396;28;19930;-74
2022/03/21 13:11:22;;;;;;;;;;;24.10;54.60;;;;;;5087604;28;19954;-69
2022/03/21 13:13:53;;;;;;;;;;;24.10;54.50;;;;;;5086865;28;19944;-74
2022/03/21 13:16:20;;;;;;;;;;;24.20;54.80;;;;;;5085639;28;19923;-73
2022/03/21 13:18:45;;;;;;;;;;;24.30;54.40;;;;;;5086981;28;19918;-73
2022/03/21 13:21:11;;;;;;;;;;;24.20;54.60;;;;;;5087332;28;19920;-74
2022/03/21 13:23:43;;;;;;;;;;;24.20;54.30;;;;;;5088110;28;19935;-74
2022/03/21 13:26:13;;;;;;;;;;;23.90;53.70;;;;;;5087752;28;19913;-74
2022/03/21 13:28:39;;;;;;;;;;;23.80;54.00;;;;;;5085864;28;19920;-74
2022/03/21 13:31:11;;;;;;;;;;;23.70;54.00;;;;;;5086282;28;20247;-73
2022/03/21 13:33:38;;;;;;;;;;;23.40;53.70;;;;;;5087525;28;19934;-75
2022/03/21 13:36:05;;;;;;;;;;;23.00;53.50;;;;;;5087435;28;19912;-75
2022/03/21 13:38:32;;;;;;;;;;;22.60;54.00;;;;;;5087644;28;19947;-74
2022/03/21 13:40:58;;;;;;;;;;;22.60;54.40;;;;;;5087738;28;19947;-74
2022/03/21 13:43:31;;;;;;;;;;;22.60;54.20;;;;;;5087463;28;19917;-75
2022/03/21 13:45:57;;;;;;;;;;;22.40;54.20;;;;;;5088107;28;20372;-74
2022/03/21 13:48:35;;;;;;;;;;;22.00;53.90;;;;;;5087814;28;19912;-74
2022/03/21 13:51:18;;;;;;;;;;;21.60;54.00;;;;;;5088090;28;19998;-74
2022/03/21 13:53:44;;;;;;;;;;;21.20;54.40;;;;;;5088120;28;19912;-74
2022/03/21 13:56:11;;;;;;;;;;;21.10;54.70;;;;;;5088054;28;19912;-74
2022/03/21 13:58:37;;;;;;;;;;;21.00;54.80;;;;;;5087904;28;19999;-74
2022/03/21 14:01:17;;;;;;;;;;;20.90;54.80;;;;;;5086214;28;19923;-76
2022/03/21 14:03:46;;;;;;;;;;;20.80;54.50;;;;;;5087590;28;19915;-73
2022/03/21 14:06:12;;;;;;;;;;;20.60;54.30;;;;;;5086941;28;19999;-74
2022/03/21 14:08:37;;;;;;;;;;;20.30;54.30;;;;;;5087574;28;20034;-75
2022/03/21 14:11:04;;;;;;;;;;;20.10;54.60;;;;;;5069338;28;20357;-75
2022/03/21 14:13:32;;;;;;;;;;;19.90;54.70;;;;;;5087156;28;19908;-73
2022/03/21 14:15:58;;;;;;;;;;;19.80;54.80;;;;;;5087492;28;19922;-76
2022/03/21 14:18:24;;;;;;;;;;;19.70;54.90;;;;;;5090588;28;19923;-75
2022/03/21 14:20:50;;;;;;;;;;;19.70;55.10;;;;;;5091141;28;20363;-73
2022/03/21 14:23:16;;;;;;;;;;;19.60;55.10;;;;;;5091482;28;20014;-75
2022/03/21 14:28:26;;;;;;;;;;;19.50;55.10;;;;;;5089719;28;19962;-74
2022/03/21 14:30:51;;;;;;;;;;;19.50;55.30;;;;;;5089325;28;20332;-75
2022/03/21 14:33:37;;;;;;;;;;;19.50;55.30;;;;;;5090856;28;19939;-75
2022/03/21 14:36:04;;;;;;;;;;;19.50;55.50;;;;;;5088028;28;20394;-74
2022/03/21 14:38:30;;;;;;;;;;;19.50;55.50;;;;;;5090286;28;19966;-71
2022/03/21 14:40:56;;;;;;;;;;;19.40;55.40;;;;;;5090193;28;20343;-74
2022/03/21 14:43:25;;;;;;;;;;;19.40;55.50;;;;;;5089355;28;19908;-73
2022/03/21 14:45:52;;;;;;;;;;;19.40;55.50;;;;;;5090715;28;20265;-73
2022/03/21 14:48:18;;;;;;;;;;;19.40;55.50;;;;;;5091265;28;19915;-74
2022/03/21 14:50:44;;;;;;;;;;;19.30;55.60;;;;;;5090471;28;19908;-74
2022/03/21 14:53:09;;;;;;;;;;;19.30;55.60;;;;;;5090081;28;20319;-74